Time,TemperatureF,DewpointF,PressureIn,WindDirection,WindDirectionDegrees,WindSpeedMPH,WindSpeedGustMPH,Humidity,HourlyPrecipIn,Conditions,Clouds,dailyrainin,SolarRadiationWatts/m^2,SoftwareType,DateUTC
2017-12-10 00:04:00,31.1,30.3,29.36,SW,221,0.0,0.0,97,0.00,,,0.00,0,Wunderground v.1.15,2017-12-10 09:04:00,
2017-12-10 00:20:00,31.7,30.9,29.38,SW,221,0.0,2.0,97,0.00,,,0.00,0,Wunderground v.1.15,2017-12-10 09:20:00,
2017-12-10 00:26:00,32.0,31.2,29.38,SW,221,0.0,2.0,97,0.00,,,0.00,0,Wunderground v.1.15,2017-12-10 09:26:00,
2017-12-10 00:32:00,32.5,31.7,29.38,SW,221,2.0,2.0,97,0.00,,,0.00,0,Wunderground v.1.15,2017-12-10 09:32:00,
2017-12-10 00:38:00,32.7,31.9,29.39,SW,221,0.0,2.0,97,0.00,,,0.00,0,Wunderground v.1.15,2017-12-10 09:38:00,
2017-12-10 00:44:00,32.7,31.9,29.39,SW,221,0.0,1.0,97,0.00,,,0.00,0,Wunderground v.1.15,2017-12-10 09:44:00,
2017-12-10 00:49:00,32.9,32.1,29.39,SW,221,0.0,1.0,97,0.00,,,0.00,0,Wunderground v.1.15,2017-12-10 09:49:00,
2017-12-10 01:00:00,33.8,33.0,29.39,SW,221,0.0,0.0,97,0.00,,,0.00,0,Wunderground v.1.15,2017-12-10 10:00:00,
2017-12-10 01:05:00,36.4,35.9,29.39,East,84,6.0,6.0,98,0.00,,,0.00,0,Wunderground v.1.15,2017-12-10 10:05:00,
2017-12-10 01:16:00,39.2,38.7,29.40,ENE,64,7.0,9.0,98,0.00,,,0.00,0,Wunderground v.1.15,2017-12-10 10:16:00,
2017-12-10 01:27:00,41.1,41.1,29.39,ENE,61,9.0,13.0,100,0.00,,,0.00,0,Wunderground v.1.15,2017-12-10 10:27:00,
2017-12-10 01:33:00,42.4,41.6,29.40,ENE,61,9.0,11.0,97,0.00,,,0.00,0,Wunderground v.1.15,2017-12-10 10:33:00,
2017-12-10 01:44:00,42.2,39.8,29.40,ENE,73,12.0,12.0,91,0.08,,,0.04,0,Wunderground v.1.15,2017-12-10 10:44:00,
2017-12-10 01:50:00,42.6,39.3,29.40,ENE,64,12.0,12.0,88,0.05,,,0.04,0,Wunderground v.1.15,2017-12-10 10:50:00,
2017-12-10 01:56:00,42.5,38.9,29.41,ENE,65,7.0,12.0,87,0.00,,,0.04,0,Wunderground v.1.15,2017-12-10 10:56:00,
2017-12-10 02:01:00,42.7,39.1,29.41,ENE,71,10.0,10.0,87,0.00,,,0.04,0,Wunderground v.1.15,2017-12-10 11:01:00,
2017-12-10 02:06:00,43.1,38.9,29.41,East,87,8.0,16.0,85,0.00,,,0.04,0,Wunderground v.1.15,2017-12-10 11:06:00,
2017-12-10 02:16:00,44.4,38.6,29.42,East,99,10.0,19.0,80,0.00,,,0.04,0,Wunderground v.1.15,2017-12-10 11:16:00,
2017-12-10 02:21:00,45.0,38.6,29.43,East,98,10.0,18.0,78,0.00,,,0.04,0,Wunderground v.1.15,2017-12-10 11:21:00,
2017-12-10 02:26:00,44.6,38.5,29.43,East,101,11.0,18.0,79,0.00,,,0.04,0,Wunderground v.1.15,2017-12-10 11:26:00,
2017-12-10 02:31:00,44.6,38.2,29.44,ESE,104,15.0,19.0,78,0.00,,,0.04,0,Wunderground v.1.15,2017-12-10 11:31:00,
2017-12-10 02:37:00,45.0,38.2,29.44,East,98,15.0,22.0,77,0.00,,,0.04,0,Wunderground v.1.15,2017-12-10 11:37:00,
2017-12-10 02:42:00,44.7,37.9,29.44,East,101,15.0,21.0,77,0.00,,,0.04,0,Wunderground v.1.15,2017-12-10 11:42:00,
2017-12-10 02:52:00,45.0,37.9,29.46,East,94,14.0,18.0,76,0.00,,,0.04,0,Wunderground v.1.15,2017-12-10 11:52:00,
2017-12-10 02:57:00,44.6,37.8,29.47,East,101,14.0,18.0,77,0.00,,,0.04,0,Wunderground v.1.15,2017-12-10 11:57:00,
2017-12-10 03:02:00,44.8,38.0,29.46,East,101,18.0,20.0,77,0.00,,,0.04,0,Wunderground v.1.15,2017-12-10 12:02:00,
2017-12-10 03:07:00,44.7,37.9,29.46,ESE,115,18.0,21.0,77,0.00,,,0.04,0,Wunderground v.1.15,2017-12-10 12:07:00,
2017-12-10 03:17:00,44.4,38.0,29.47,ESE,111,17.0,23.0,78,0.00,,,0.04,0,Wunderground v.1.15,2017-12-10 12:17:00,
2017-12-10 03:18:00,44.3,37.9,29.47,ESE,105,15.0,24.0,78,0.00,,,0.04,0,Wunderground v.1.15,2017-12-10 12:18:00,
2017-12-10 03:23:00,44.4,38.0,29.48,ESE,103,14.0,20.0,78,0.00,,,0.04,0,Wunderground v.1.15,2017-12-10 12:23:00,
2017-12-10 03:28:00,44.3,37.9,29.48,ESE,104,18.0,25.0,78,0.00,,,0.04,0,Wunderground v.1.15,2017-12-10 12:28:00,
2017-12-10 03:29:00,44.3,37.9,29.48,ESE,107,13.0,25.0,78,0.00,,,0.04,0,Wunderground v.1.15,2017-12-10 12:29:00,
2017-12-10 03:39:00,44.1,37.7,29.49,ESE,107,13.0,22.0,78,0.00,,,0.04,0,Wunderground v.1.15,2017-12-10 12:39:00,
2017-12-10 03:44:00,43.9,37.5,29.49,East,96,14.0,18.0,78,0.00,,,0.04,0,Wunderground v.1.15,2017-12-10 12:44:00,
2017-12-10 03:49:00,44.0,37.6,29.50,East,100,11.0,21.0,78,0.00,,,0.04,0,Wunderground v.1.15,2017-12-10 12:49:00,
2017-12-10 03:54:00,44.2,37.8,29.51,East,96,14.0,24.0,78,0.00,,,0.04,0,Wunderground v.1.15,2017-12-10 12:54:00,
2017-12-10 03:59:00,44.2,37.8,29.51,East,84,16.0,24.0,78,0.00,,,0.04,0,Wunderground v.1.15,2017-12-10 12:59:00,
2017-12-10 04:04:00,44.2,37.8,29.51,East,100,17.0,29.0,78,0.00,,,0.04,0,Wunderground v.1.15,2017-12-10 13:04:00,
2017-12-10 04:09:00,43.9,37.8,29.51,East,96,17.0,29.0,79,0.00,,,0.04,0,Wunderground v.1.15,2017-12-10 13:09:00,
2017-12-10 04:14:00,43.7,37.9,29.51,ESE,107,16.0,19.0,80,0.00,,,0.04,0,Wunderground v.1.15,2017-12-10 13:14:00,
2017-12-10 04:19:00,43.4,37.6,29.51,East,89,10.0,22.0,80,0.00,,,0.04,0,Wunderground v.1.15,2017-12-10 13:19:00,
2017-12-10 04:24:00,43.7,37.9,29.51,East,90,18.0,26.0,80,0.00,,,0.04,0,Wunderground v.1.15,2017-12-10 13:24:00,
2017-12-10 04:29:00,43.7,37.9,29.52,East,86,14.0,26.0,80,0.00,,,0.04,0,Wunderground v.1.15,2017-12-10 13:29:00,
2017-12-10 04:34:00,43.7,37.9,29.51,East,98,25.0,27.0,80,0.00,,,0.04,0,Wunderground v.1.15,2017-12-10 13:34:00,
2017-12-10 04:39:00,43.7,37.9,29.51,East,90,11.0,27.0,80,0.00,,,0.04,0,Wunderground v.1.15,2017-12-10 13:39:00,
2017-12-10 04:44:00,43.5,37.7,29.51,East,94,18.0,25.0,80,0.00,,,0.04,0,Wunderground v.1.15,2017-12-10 13:44:00,
2017-12-10 04:49:00,43.6,37.8,29.52,East,90,17.0,27.0,80,0.00,,,0.04,0,Wunderground v.1.15,2017-12-10 13:49:00,
2017-12-10 04:54:00,43.7,37.9,29.52,ESE,102,14.0,30.0,80,0.00,,,0.04,0,Wunderground v.1.15,2017-12-10 13:54:00,
2017-12-10 04:59:00,43.7,37.9,29.52,East,101,15.0,30.0,80,0.00,,,0.04,0,Wunderground v.1.15,2017-12-10 13:59:00,
2017-12-10 05:09:00,43.8,38.0,29.54,ESE,109,25.0,31.0,80,0.00,,,0.04,0,Wunderground v.1.15,2017-12-10 14:09:00,
2017-12-10 05:14:00,44.0,37.9,29.54,East,100,16.0,24.0,79,0.00,,,0.04,0,Wunderground v.1.15,2017-12-10 14:14:00,
2017-12-10 05:19:00,43.7,37.9,29.54,East,88,16.0,24.0,80,0.00,,,0.04,0,Wunderground v.1.15,2017-12-10 14:19:00,
2017-12-10 05:24:00,43.8,38.0,29.54,East,94,19.0,22.0,80,0.00,,,0.04,0,Wunderground v.1.15,2017-12-10 14:24:00,
2017-12-10 05:29:00,43.6,38.2,29.55,East,88,15.0,24.0,81,0.00,,,0.05,0,Wunderground v.1.15,2017-12-10 14:29:00,
2017-12-10 05:34:00,43.2,38.1,29.56,ESE,102,21.0,29.0,82,0.00,,,0.05,0,Wunderground v.1.15,2017-12-10 14:34:00,
2017-12-10 05:44:00,43.1,38.0,29.56,East,90,13.0,22.0,82,0.00,,,0.05,0,Wunderground v.1.15,2017-12-10 14:44:00,
2017-12-10 05:49:00,43.1,38.3,29.57,ESE,104,21.0,22.0,83,0.00,,,0.05,0,Wunderground v.1.15,2017-12-10 14:49:00,
2017-12-10 05:54:00,43.1,38.0,29.58,East,88,13.0,26.0,82,0.00,,,0.05,0,Wunderground v.1.15,2017-12-10 14:54:00,
2017-12-10 06:04:00,42.8,37.7,29.59,East,99,15.0,22.0,82,0.00,,,0.05,0,Wunderground v.1.15,2017-12-10 15:04:00,
2017-12-10 06:09:00,42.7,37.6,29.59,East,98,10.0,22.0,82,0.00,,,0.05,0,Wunderground v.1.15,2017-12-10 15:09:00,
2017-12-10 06:10:00,42.7,37.6,29.59,East,86,23.0,23.0,82,0.00,,,0.05,0,Wunderground v.1.15,2017-12-10 15:10:00,
2017-12-10 06:15:00,42.9,37.5,29.59,East,95,15.0,26.0,81,0.00,,,0.05,0,Wunderground v.1.15,2017-12-10 15:15:00,
2017-12-10 06:25:00,43.0,37.6,29.60,East,98,18.0,25.0,81,0.00,,,0.06,0,Wunderground v.1.15,2017-12-10 15:25:00,
2017-12-10 06:30:00,43.1,37.7,29.61,East,87,17.0,20.0,81,0.00,,,0.06,0,Wunderground v.1.15,2017-12-10 15:30:00,
2017-12-10 06:40:00,42.9,37.5,29.62,East,98,13.0,18.0,81,0.00,,,0.06,0,Wunderground v.1.15,2017-12-10 15:40:00,
2017-12-10 06:45:00,42.9,37.5,29.63,East,95,18.0,24.0,81,0.00,,,0.06,0,Wunderground v.1.15,2017-12-10 15:45:00,
2017-12-10 06:51:00,43.0,37.6,29.63,East,85,11.0,19.0,81,0.00,,,0.06,0,Wunderground v.1.15,2017-12-10 15:51:00,
2017-12-10 07:11:00,43.3,36.6,29.64,East,95,17.0,25.0,77,0.00,,,0.06,0,Wunderground v.1.15,2017-12-10 16:11:00,
2017-12-10 07:16:00,43.3,36.9,29.65,East,101,17.0,25.0,78,0.00,,,0.06,0,Wunderground v.1.15,2017-12-10 16:16:00,
2017-12-10 07:21:00,43.2,36.8,29.65,East,96,24.0,24.0,78,0.00,,,0.06,0,Wunderground v.1.15,2017-12-10 16:21:00,
2017-12-10 07:31:00,42.8,36.7,29.65,East,97,22.0,22.0,79,0.00,,,0.06,0,Wunderground v.1.15,2017-12-10 16:31:00,
2017-12-10 07:42:00,43.1,36.4,29.66,East,94,18.0,22.0,77,0.00,,,0.06,0,Wunderground v.1.15,2017-12-10 16:42:00,
2017-12-10 07:47:00,43.4,36.3,29.66,East,98,14.0,23.0,76,0.00,,,0.06,0,Wunderground v.1.15,2017-12-10 16:47:00,
2017-12-10 07:52:00,43.4,36.0,29.66,East,97,14.0,19.0,75,0.00,,,0.06,0,Wunderground v.1.15,2017-12-10 16:52:00,
2017-12-10 07:57:00,43.3,35.9,29.66,ESE,104,16.0,22.0,75,0.00,,,0.06,0,Wunderground v.1.15,2017-12-10 16:57:00,
2017-12-10 08:02:00,43.5,35.8,29.66,East,94,10.0,23.0,74,0.00,,,0.06,0,Wunderground v.1.15,2017-12-10 17:02:00,
2017-12-10 08:12:00,43.4,35.3,29.67,East,101,14.0,22.0,73,0.00,,,0.06,0,Wunderground v.1.15,2017-12-10 17:12:00,
2017-12-10 08:16:00,43.3,35.2,29.68,ESE,103,14.0,22.0,73,0.00,,,0.06,0,Wunderground v.1.15,2017-12-10 17:16:00,
2017-12-10 08:21:00,43.6,35.2,29.67,East,98,18.0,18.0,72,0.00,,,0.06,0,Wunderground v.1.15,2017-12-10 17:21:00,
2017-12-10 08:26:00,43.9,34.7,29.67,East,100,22.0,24.0,70,0.00,,,0.06,0,Wunderground v.1.15,2017-12-10 17:26:00,
2017-12-10 08:31:00,44.1,34.2,29.67,East,101,19.0,23.0,68,0.00,,,0.06,0,Wunderground v.1.15,2017-12-10 17:31:00,
2017-12-10 08:36:00,43.9,34.4,29.68,ESE,110,17.0,23.0,69,0.00,,,0.06,0,Wunderground v.1.15,2017-12-10 17:36:00,
2017-12-10 08:41:00,43.8,34.3,29.68,East,99,14.0,18.0,69,0.00,,,0.06,0,Wunderground v.1.15,2017-12-10 17:41:00,
2017-12-10 08:46:00,43.7,33.8,29.69,East,97,11.0,18.0,68,0.00,,,0.06,0,Wunderground v.1.15,2017-12-10 17:46:00,
2017-12-10 08:51:00,44.1,33.8,29.69,ESE,105,18.0,24.0,67,0.00,,,0.06,0,Wunderground v.1.15,2017-12-10 17:51:00,
2017-12-10 08:56:00,44.1,33.8,29.69,East,94,10.0,25.0,67,0.00,,,0.06,0,Wunderground v.1.15,2017-12-10 17:56:00,
2017-12-10 09:01:00,44.2,33.6,29.69,ESE,103,14.0,21.0,66,0.00,,,0.06,0,Wunderground v.1.15,2017-12-10 18:01:00,
2017-12-10 09:06:00,44.2,33.2,29.69,East,96,13.0,23.0,65,0.00,,,0.06,0,Wunderground v.1.15,2017-12-10 18:06:00,
2017-12-10 09:11:00,44.3,32.9,29.69,East,96,10.0,20.0,64,0.00,,,0.06,0,Wunderground v.1.15,2017-12-10 18:11:00,
2017-12-10 09:16:00,44.2,32.8,29.69,ESE,105,13.0,25.0,64,0.00,,,0.06,0,Wunderground v.1.15,2017-12-10 18:16:00,
2017-12-10 09:21:00,44.2,32.8,29.69,ESE,104,14.0,15.0,64,0.00,,,0.06,0,Wunderground v.1.15,2017-12-10 18:21:00,
2017-12-10 09:26:00,43.8,33.2,29.70,ESE,105,12.0,23.0,66,0.00,,,0.06,0,Wunderground v.1.15,2017-12-10 18:26:00,
2017-12-10 09:31:00,43.6,33.4,29.69,East,88,14.0,14.0,67,0.00,,,0.06,0,Wunderground v.1.15,2017-12-10 18:31:00,
2017-12-10 09:41:00,43.6,33.0,29.70,East,100,17.0,17.0,66,0.00,,,0.06,0,Wunderground v.1.15,2017-12-10 18:41:00,
2017-12-10 09:46:00,43.2,33.3,29.69,East,96,14.0,17.0,68,0.00,,,0.06,0,Wunderground v.1.15,2017-12-10 18:46:00,
2017-12-10 10:02:00,43.5,34.0,29.70,ESE,102,13.0,22.0,69,0.00,,,0.06,0,Wunderground v.1.15,2017-12-10 19:02:00,
2017-12-10 10:07:00,43.4,33.9,29.70,East,97,10.0,22.0,69,0.00,,,0.06,5,Wunderground v.1.15,2017-12-10 19:07:00,
2017-12-10 10:12:00,43.4,33.9,29.70,ESE,105,14.0,22.0,69,0.00,,,0.06,5,Wunderground v.1.15,2017-12-10 19:12:00,
2017-12-10 10:17:00,43.3,34.2,29.70,East,92,14.0,25.0,70,0.00,,,0.06,5,Wunderground v.1.15,2017-12-10 19:17:00,
2017-12-10 10:37:00,42.4,34.7,29.71,East,98,13.0,27.0,74,0.00,,,0.06,11,Wunderground v.1.15,2017-12-10 19:37:00,
2017-12-10 10:42:00,42.5,34.8,29.71,East,93,17.0,24.0,74,0.00,,,0.06,11,Wunderground v.1.15,2017-12-10 19:42:00,
2017-12-10 10:47:00,42.9,34.8,29.71,East,101,13.0,25.0,73,0.00,,,0.06,11,Wunderground v.1.15,2017-12-10 19:47:00,
2017-12-10 10:57:00,43.1,34.3,29.71,East,92,11.0,27.0,71,0.00,,,0.06,11,Wunderground v.1.15,2017-12-10 19:57:00,
2017-12-10 11:02:00,43.3,34.2,29.72,East,99,14.0,22.0,70,0.00,,,0.06,12,Wunderground v.1.15,2017-12-10 20:02:00,
2017-12-10 11:17:00,43.4,33.9,29.71,East,96,9.0,24.0,69,0.00,,,0.06,28,Wunderground v.1.15,2017-12-10 20:17:00,
2017-12-10 11:27:00,43.5,33.6,29.70,East,94,19.0,23.0,68,0.00,,,0.06,28,Wunderground v.1.15,2017-12-10 20:27:00,
2017-12-10 11:32:00,43.7,33.8,29.70,East,92,15.0,20.0,68,0.00,,,0.06,28,Wunderground v.1.15,2017-12-10 20:32:00,
2017-12-10 11:37:00,43.8,33.2,29.70,East,92,10.0,20.0,66,0.00,,,0.06,28,Wunderground v.1.15,2017-12-10 20:37:00,
2017-12-10 11:42:00,43.6,33.4,29.70,East,92,14.0,20.0,67,0.00,,,0.06,28,Wunderground v.1.15,2017-12-10 20:42:00,
2017-12-10 11:52:00,43.7,33.8,29.70,East,95,11.0,16.0,68,0.00,,,0.06,32,Wunderground v.1.15,2017-12-10 20:52:00,
2017-12-10 11:57:00,43.4,33.9,29.70,East,92,9.0,22.0,69,0.00,,,0.06,33,Wunderground v.1.15,2017-12-10 20:57:00,
2017-12-10 12:07:00,43.6,33.4,29.70,East,96,9.0,19.0,67,0.00,,,0.06,35,Wunderground v.1.15,2017-12-10 21:07:00,
2017-12-10 12:12:00,43.8,33.9,29.70,East,101,14.0,22.0,68,0.00,,,0.06,37,Wunderground v.1.15,2017-12-10 21:12:00,
2017-12-10 12:17:00,43.8,34.3,29.70,East,92,9.0,22.0,69,0.00,,,0.06,37,Wunderground v.1.15,2017-12-10 21:17:00,
2017-12-10 12:22:00,43.9,34.0,29.70,East,95,10.0,16.0,68,0.00,,,0.06,39,Wunderground v.1.15,2017-12-10 21:22:00,
2017-12-10 12:27:00,44.2,33.9,29.69,East,90,14.0,24.0,67,0.00,,,0.06,39,Wunderground v.1.15,2017-12-10 21:27:00,
2017-12-10 12:32:00,44.3,34.0,29.69,East,83,13.0,19.0,67,0.00,,,0.06,37,Wunderground v.1.15,2017-12-10 21:32:00,
2017-12-10 12:37:00,44.4,34.1,29.69,East,98,7.0,19.0,67,0.00,,,0.06,37,Wunderground v.1.15,2017-12-10 21:37:00,
2017-12-10 12:42:00,44.3,34.0,29.69,East,93,11.0,14.0,67,0.00,,,0.06,37,Wunderground v.1.15,2017-12-10 21:42:00,
2017-12-10 12:47:00,44.5,33.8,29.69,East,87,11.0,22.0,66,0.00,,,0.06,35,Wunderground v.1.15,2017-12-10 21:47:00,
2017-12-10 12:52:00,44.8,34.1,29.69,East,95,10.0,22.0,66,0.00,,,0.06,42,Wunderground v.1.15,2017-12-10 21:52:00,
2017-12-10 12:58:00,44.7,34.0,29.68,East,96,15.0,22.0,66,0.00,,,0.06,39,Wunderground v.1.15,2017-12-10 21:58:00,
2017-12-10 13:03:00,44.8,33.7,29.68,East,87,22.0,22.0,65,0.00,,,0.06,35,Wunderground v.1.15,2017-12-10 22:03:00,
2017-12-10 13:08:00,44.8,33.7,29.68,East,88,13.0,22.0,65,0.00,,,0.06,35,Wunderground v.1.15,2017-12-10 22:08:00,
2017-12-10 13:19:00,44.9,34.2,29.67,East,91,10.0,24.0,66,0.00,,,0.06,32,Wunderground v.1.15,2017-12-10 22:19:00,
2017-12-10 13:24:00,44.7,33.6,29.67,East,92,11.0,19.0,65,0.00,,,0.06,28,Wunderground v.1.15,2017-12-10 22:24:00,
2017-12-10 13:29:00,44.9,33.8,29.67,ESE,106,17.0,22.0,65,0.00,,,0.06,28,Wunderground v.1.15,2017-12-10 22:29:00,
2017-12-10 13:34:00,45.0,33.9,29.66,East,96,15.0,18.0,65,0.00,,,0.06,26,Wunderground v.1.15,2017-12-10 22:34:00,
2017-12-10 13:39:00,45.2,33.3,29.66,East,85,11.0,21.0,63,0.00,,,0.06,25,Wunderground v.1.15,2017-12-10 22:39:00,
2017-12-10 13:49:00,45.1,33.2,29.64,East,92,15.0,22.0,63,0.00,,,0.06,21,Wunderground v.1.15,2017-12-10 22:49:00,
2017-12-10 14:00:00,45.1,33.6,29.64,East,94,13.0,22.0,64,0.00,,,0.06,18,Wunderground v.1.15,2017-12-10 23:00:00,
2017-12-10 14:05:00,45.2,33.3,29.64,East,89,13.0,18.0,63,0.00,,,0.06,16,Wunderground v.1.15,2017-12-10 23:05:00,
2017-12-10 14:10:00,45.2,32.9,29.63,East,91,16.0,16.0,62,0.00,,,0.06,14,Wunderground v.1.15,2017-12-10 23:10:00,
2017-12-10 14:15:00,45.3,32.6,29.62,East,87,11.0,18.0,61,0.00,,,0.06,11,Wunderground v.1.15,2017-12-10 23:15:00,
2017-12-10 14:20:00,45.3,32.6,29.61,East,84,10.0,13.0,61,0.00,,,0.06,9,Wunderground v.1.15,2017-12-10 23:20:00,
2017-12-10 14:25:00,45.2,32.9,29.61,East,94,8.0,16.0,62,0.00,,,0.06,9,Wunderground v.1.15,2017-12-10 23:25:00,
2017-12-10 14:30:00,45.1,32.8,29.60,East,99,15.0,15.0,62,0.00,,,0.06,7,Wunderground v.1.15,2017-12-10 23:30:00,
2017-12-10 14:35:00,45.0,32.8,29.60,East,82,10.0,17.0,62,0.00,,,0.06,7,Wunderground v.1.15,2017-12-10 23:35:00,
2017-12-10 14:40:00,45.0,33.2,29.59,East,80,10.0,11.0,63,0.00,,,0.06,7,Wunderground v.1.15,2017-12-10 23:40:00,
2017-12-10 14:50:00,45.1,32.8,29.57,ESE,103,10.0,11.0,62,0.00,,,0.06,0,Wunderground v.1.15,2017-12-10 23:50:00,
2017-12-10 14:56:00,45.0,33.2,29.57,East,86,11.0,13.0,63,0.00,,,0.06,0,Wunderground v.1.15,2017-12-10 23:56:00,
2017-12-10 15:06:00,44.9,33.5,29.56,East,84,10.0,16.0,64,0.00,,,0.06,0,Wunderground v.1.15,2017-12-11 00:06:00,
2017-12-10 15:11:00,44.7,33.6,29.55,East,94,6.0,11.0,65,0.00,,,0.06,0,Wunderground v.1.15,2017-12-11 00:11:00,
2017-12-10 15:16:00,44.7,33.6,29.55,East,100,8.0,16.0,65,0.00,,,0.06,0,Wunderground v.1.15,2017-12-11 00:16:00,
2017-12-10 15:21:00,44.7,34.0,29.54,ESE,103,8.0,14.0,66,0.00,,,0.06,0,Wunderground v.1.15,2017-12-11 00:21:00,
2017-12-10 15:26:00,44.7,34.0,29.54,East,90,7.0,14.0,66,0.00,,,0.06,0,Wunderground v.1.15,2017-12-11 00:26:00,
2017-12-10 15:31:00,44.5,33.8,29.53,East,90,9.0,11.0,66,0.00,,,0.06,0,Wunderground v.1.15,2017-12-11 00:31:00,
2017-12-10 15:37:00,44.5,34.2,29.52,East,90,7.0,16.0,67,0.00,,,0.06,0,Wunderground v.1.15,2017-12-11 00:37:00,
2017-12-10 15:44:00,44.6,33.9,29.51,East,84,9.0,11.0,66,0.00,,,0.06,0,Wunderground v.1.15,2017-12-11 00:44:00,
2017-12-10 15:54:00,45.8,33.5,29.50,East,80,8.0,15.0,62,0.00,,,0.06,0,Wunderground v.1.15,2017-12-11 00:54:00,
2017-12-10 15:59:00,45.6,33.7,29.50,East,89,9.0,15.0,63,0.00,,,0.06,0,Wunderground v.1.15,2017-12-11 00:59:00,
2017-12-10 16:09:00,45.3,33.4,29.48,ENE,65,7.0,13.0,63,0.00,,,0.06,0,Wunderground v.1.15,2017-12-11 01:09:00,
2017-12-10 16:14:00,45.5,33.2,29.47,ENE,67,12.0,14.0,62,0.00,,,0.06,0,Wunderground v.1.15,2017-12-11 01:14:00,
2017-12-10 16:19:00,45.3,33.0,29.46,ENE,61,11.0,14.0,62,0.00,,,0.06,0,Wunderground v.1.15,2017-12-11 01:19:00,
2017-12-10 16:30:00,45.4,33.1,29.44,NE,51,5.0,7.0,62,0.00,,,0.06,0,Wunderground v.1.15,2017-12-11 01:30:00,
2017-12-10 16:35:00,45.3,33.0,29.44,ENE,61,2.0,10.0,62,0.00,,,0.06,0,Wunderground v.1.15,2017-12-11 01:35:00,
2017-12-10 16:45:00,44.9,33.1,29.44,NE,39,5.0,10.0,63,0.00,,,0.06,0,Wunderground v.1.15,2017-12-11 01:45:00,
2017-12-10 16:56:00,45.0,32.8,29.43,NE,46,3.0,10.0,62,0.00,,,0.06,0,Wunderground v.1.15,2017-12-11 01:56:00,
2017-12-10 17:01:00,45.3,32.6,29.43,NE,45,5.0,5.0,61,0.00,,,0.06,0,Wunderground v.1.15,2017-12-11 02:01:00,
2017-12-10 17:06:00,45.4,32.7,29.43,NNE,30,5.0,9.0,61,0.00,,,0.06,0,Wunderground v.1.15,2017-12-11 02:06:00,
2017-12-10 17:11:00,45.3,32.6,29.42,NNE,22,4.0,6.0,61,0.00,,,0.06,0,Wunderground v.1.15,2017-12-11 02:11:00,
2017-12-10 17:16:00,45.4,32.7,29.42,NNW,348,7.0,14.0,61,0.00,,,0.06,0,Wunderground v.1.15,2017-12-11 02:16:00,
2017-12-10 17:21:00,45.5,32.8,29.41,North,355,8.0,9.0,61,0.00,,,0.06,0,Wunderground v.1.15,2017-12-11 02:21:00,
2017-12-10 17:31:00,45.7,32.6,29.40,NE,55,8.0,9.0,60,0.00,,,0.06,0,Wunderground v.1.15,2017-12-11 02:31:00,
2017-12-10 17:36:00,45.4,32.7,29.40,NE,49,4.0,13.0,61,0.00,,,0.06,0,Wunderground v.1.15,2017-12-11 02:36:00,
2017-12-10 17:41:00,45.2,32.5,29.40,NE,48,5.0,7.0,61,0.00,,,0.06,0,Wunderground v.1.15,2017-12-11 02:41:00,
2017-12-10 17:51:00,45.4,32.7,29.38,ENE,57,7.0,7.0,61,0.00,,,0.06,0,Wunderground v.1.15,2017-12-11 02:51:00,
2017-12-10 17:56:00,45.4,32.7,29.38,ENE,59,8.0,9.0,61,0.00,,,0.06,0,Wunderground v.1.15,2017-12-11 02:56:00,
2017-12-10 18:02:00,45.3,33.8,29.37,ENE,63,8.0,10.0,64,0.00,,,0.06,0,Wunderground v.1.15,2017-12-11 03:02:00,
2017-12-10 18:07:00,45.0,34.3,29.37,ENE,67,5.0,10.0,66,0.00,,,0.06,0,Wunderground v.1.15,2017-12-11 03:07:00,
2017-12-10 18:15:00,44.5,34.2,29.36,ENE,65,4.0,7.0,67,0.00,,,0.06,0,Wunderground v.1.15,2017-12-11 03:15:00,
2017-12-10 18:20:00,44.5,33.8,29.35,ENE,65,7.0,7.0,66,0.00,,,0.06,0,Wunderground v.1.15,2017-12-11 03:20:00,
2017-12-10 18:41:00,44.6,35.1,29.34,ENE,59,4.0,9.0,69,0.00,,,0.06,0,Wunderground v.1.15,2017-12-11 03:41:00,
2017-12-10 18:59:00,44.2,36.8,29.31,East,81,7.0,13.0,75,0.00,,,0.07,0,Wunderground v.1.15,2017-12-11 03:59:00,
2017-12-10 19:05:00,43.7,37.3,29.30,East,97,10.0,10.0,78,0.00,,,0.07,0,Wunderground v.1.15,2017-12-11 04:05:00,
2017-12-10 19:12:00,43.3,37.2,29.30,East,94,8.0,10.0,79,0.00,,,0.07,0,Wunderground v.1.15,2017-12-11 04:12:00,
2017-12-10 19:17:00,43.2,37.1,29.29,East,84,6.0,14.0,79,0.00,,,0.07,0,Wunderground v.1.15,2017-12-11 04:17:00,
2017-12-10 19:22:00,43.1,37.3,29.28,East,94,9.0,11.0,80,0.00,,,0.07,0,Wunderground v.1.15,2017-12-11 04:22:00,